Current Weather

Ralph M Hall Rockwall Municip

Ralph M Hall Rockwall Municip, Texas (KF46)

Report from: Saturday, February 24, 2024 2:15 PM CST
Current time: Saturday, February 24, 2024 2:30 PM CST

Nearby weather – Weather history – Daily summaries
Weather forecast

Temperature23.6°C (74.5°F)
Dew point1.4°C (34.5°F)
Winds 9 kts (4.6 m/s, 10.4 mph) West-Southwest (250°)
Wind gusts 15 kts (7.7 m/s, 17.3 mph)
Visibility10 mi. (16.1 km)
Clouds Sky clear
Altimeter30.12 in.Hg (1020 mB)
Relative humidity23 %
Density altitude879 ft. (268 m)
Remarks Fully automated report
Automated weather observing station with precipitation discriminator
Flight conditions Visual Meteorological Conditions
Raw dataKF46 242015Z AUTO 25009G15KT 10SM CLR 24/01 A3012 RMK AO2 T02360014
An error has occurred. This application may no longer respond until reloaded. Reload 🗙